Aeroporto :
LOGIN :

Iscrizione | Disclaimer

   EN    FR    IT 

 










Sommario :    VFR   VFR Marginale   IFR   IFR Intensivo   IFR Molto Intensivo
Visibilità : 
Base nubi : 
>= 8 km
>= 3000ft
5 / 8 km
1000 / 3000 ft
1500m / 5 km
500 / 1000 ft
800 / 1500m
200 / 500 ft
< 800m
< 200 ft
Simboli :   Temporali  Nebbia  Neve Forte  Precipitazioni Forti  Vento > 20 kt
SIGMETs :   Varie  Temporali  Ghiacco  Turbolenza  Onda orograficha  Ceneri Vulcaniche







- Altitudine del aeroporto : 20 ft
- Codice IATA : TIV


LYTV - Tivat - Montenegro

ULTIMO METAR :
  • 161230Z VRB04KT CAVOK 14/01 Q1028 NOSIG

METARs OBSOLETI :
  • 161200Z 23007KT 170V270 CAVOK 14/01 Q1029 NOSIG
  • 161130Z 22007KT 160V270 CAVOK 15/M01 Q1029 NOSIG
  • 161100Z 25006KT 180V300 CAVOK 15/M05 Q1029 NOSIG
  • 161030Z 20003KT 150V270 CAVOK 14/M07 Q1029 NOSIG
  • 161000Z 33003KT 270V030 CAVOK 14/M05 Q1029 NOSIG

TAF TAF LYTV
Valido dal 16 a 12 ore il 17 a 12 ore UTC


161100Z 1612/1712 23008KT CAVOK TX16/1613Z TN01/1705Z
PROB30
TEMPO 1704/1707 3000 BR
Nessun NOTAM noto per questo aeroporto.



MetMap, La meteo Aeronautica in un colpo d'occhio ! - Copyright ORBIFLY Dicembre 2007 - Disclaimer

ORBIFLY MET'MAP TEAM :

Programmazione e sviluppo : Alexandra Zaïnal
Concezione e sviluppo : Baudouin d'Aumeries
Co-Programmazione e sviluppo : Marc-Olivier Méhu
Supporto tecnico e logistico : Manuel Goepfert
Aiuto per la traduzione : Arnaldo La Scala

Contatto : metmap@orbifly.com




FONTI E CREDITI :

   NOAA